sensor_id;sensor_type;location;lat;lon;timestamp;pressure;altitude;pressure_sealevel;temperature;humidity
59767;BME280;46248;58.364;25.582;2023-03-21T00:01:14;99760.47;;;3.44;100.00
59767;BME280;46248;58.364;25.582;2023-03-21T00:04:36;99755.47;;;3.40;100.00
59767;BME280;46248;58.364;25.582;2023-03-21T00:08:12;99757.13;;;3.42;100.00
59767;BME280;46248;58.364;25.582;2023-03-21T00:11:35;99763.13;;;3.43;100.00
59767;BME280;46248;58.364;25.582;2023-03-21T00:14:57;99758.91;;;3.40;100.00
59767;BME280;46248;58.364;25.582;2023-03-21T00:18:26;99769.22;;;3.42;100.00
59767;BME280;46248;58.364;25.582;2023-03-21T00:21:48;99762.28;;;3.42;100.00
59767;BME280;46248;58.364;25.582;2023-03-21T00:25:27;99760.56;;;3.41;100.00
59767;BME280;46248;58.364;25.582;2023-03-21T00:28:49;99765.81;;;3.40;100.00
59767;BME280;46248;58.364;25.582;2023-03-21T00:32:11;99763.28;;;3.38;100.00
59767;BME280;46248;58.364;25.582;2023-03-21T00:35:33;99765.13;;;3.35;100.00
59767;BME280;46248;58.364;25.582;2023-03-21T00:39:14;99775.47;;;3.35;100.00
59767;BME280;46248;58.364;25.582;2023-03-21T00:42:37;99775.56;;;3.32;100.00
59767;BME280;46248;58.364;25.582;2023-03-21T00:45:59;99775.75;;;3.27;100.00
59767;BME280;46248;58.364;25.582;2023-03-21T00:49:22;99772.28;;;3.27;100.00
59767;BME280;46248;58.364;25.582;2023-03-21T00:52:44;99771.50;;;3.25;100.00
59767;BME280;46248;58.364;25.582;2023-03-21T00:56:07;99775.84;;;3.24;100.00
59767;BME280;46248;58.364;25.582;2023-03-21T00:59:31;99780.22;;;3.22;100.00
59767;BME280;46248;58.364;25.582;2023-03-21T01:02:52;99776.91;;;3.17;100.00
59767;BME280;46248;58.364;25.582;2023-03-21T01:06:27;99769.16;;;3.17;100.00
59767;BME280;46248;58.364;25.582;2023-03-21T01:09:49;99770.91;;;3.16;100.00
59767;BME280;46248;58.364;25.582;2023-03-21T01:13:13;99763.31;;;3.12;100.00
59767;BME280;46248;58.364;25.582;2023-03-21T01:16:37;99766.63;;;3.15;100.00
59767;BME280;46248;58.364;25.582;2023-03-21T01:19:59;99731.03;;;2.97;100.00
59767;BME280;46248;58.364;25.582;2023-03-21T01:23:24;99756.31;;;3.14;100.00
59767;BME280;46248;58.364;25.582;2023-03-21T01:26:46;99751.25;;;3.11;100.00
59767;BME280;46248;58.364;25.582;2023-03-21T01:30:09;99764.91;;;3.16;100.00
59767;BME280;46248;58.364;25.582;2023-03-21T01:33:43;99756.41;;;3.12;100.00
59767;BME280;46248;58.364;25.582;2023-03-21T01:37:05;99752.16;;;3.10;100.00
59767;BME280;46248;58.364;25.582;2023-03-21T01:40:27;99755.38;;;3.16;100.00
59767;BME280;46248;58.364;25.582;2023-03-21T01:43:51;99765.63;;;3.19;100.00
59767;BME280;46248;58.364;25.582;2023-03-21T01:47:13;99752.31;;;3.05;100.00
59767;BME280;46248;58.364;25.582;2023-03-21T01:50:36;99764.19;;;3.11;100.00
59767;BME280;46248;58.364;25.582;2023-03-21T01:53:59;99770.19;;;3.11;100.00
59767;BME280;46248;58.364;25.582;2023-03-21T01:57:24;99769.38;;;3.11;100.00
59767;BME280;46248;58.364;25.582;2023-03-21T02:01:03;99771.22;;;3.07;100.00
59767;BME280;46248;58.364;25.582;2023-03-21T02:04:26;99766.09;;;3.06;100.00
59767;BME280;46248;58.364;25.582;2023-03-21T02:07:51;99756.69;;;3.03;100.00
59767;BME280;46248;58.364;25.582;2023-03-21T02:11:13;99759.38;;;3.00;100.00
59767;BME280;46248;58.364;25.582;2023-03-21T02:14:37;99766.09;;;3.06;100.00
59767;BME280;46248;58.364;25.582;2023-03-21T02:18:04;99767.03;;;3.03;100.00
59767;BME280;46248;58.364;25.582;2023-03-21T02:25:46;99766.25;;;3.01;100.00
59767;BME280;46248;58.364;25.582;2023-03-21T02:29:31;99744.25;;;2.88;100.00
59767;BME280;46248;58.364;25.582;2023-03-21T02:33:15;99773.16;;;3.01;100.00
59767;BME280;46248;58.364;25.582;2023-03-21T02:36:49;99773.19;;;2.99;100.00
59767;BME280;46248;58.364;25.582;2023-03-21T02:40:16;99761.50;;;2.87;100.00
59767;BME280;46248;58.364;25.582;2023-03-21T02:43:43;99780.19;;;2.95;100.00
59767;BME280;46248;58.364;25.582;2023-03-21T02:47:11;99774.28;;;2.92;100.00
59767;BME280;46248;58.364;25.582;2023-03-21T02:50:37;99770.16;;;2.86;100.00
59767;BME280;46248;58.364;25.582;2023-03-21T02:54:05;99782.75;;;2.97;100.00
59767;BME280;46248;58.364;25.582;2023-03-21T02:57:50;99788.06;;;2.92;100.00
59767;BME280;46248;58.364;25.582;2023-03-21T03:01:13;99781.25;;;2.90;100.00
59767;BME280;46248;58.364;25.582;2023-03-21T03:04:35;99779.75;;;2.83;100.00
59767;BME280;46248;58.364;25.582;2023-03-21T03:08:08;99791.56;;;2.91;100.00
59767;BME280;46248;58.364;25.582;2023-03-21T03:11:34;99786.47;;;2.88;100.00
59767;BME280;46248;58.364;25.582;2023-03-21T03:15:04;99796.00;;;2.86;100.00
59767;BME280;46248;58.364;25.582;2023-03-21T03:18:34;99800.34;;;2.86;100.00
59767;BME280;46248;58.364;25.582;2023-03-21T03:22:03;99804.78;;;2.81;100.00
59767;BME280;46248;58.364;25.582;2023-03-21T03:25:30;99804.75;;;2.82;100.00
59767;BME280;46248;58.364;25.582;2023-03-21T03:29:06;99793.78;;;2.75;100.00
59767;BME280;46248;58.364;25.582;2023-03-21T03:32:33;99799.53;;;2.84;100.00
59767;BME280;46248;58.364;25.582;2023-03-21T03:35:58;99803.94;;;2.82;100.00
59767;BME280;46248;58.364;25.582;2023-03-21T03:39:29;99798.84;;;2.79;100.00
59767;BME280;46248;58.364;25.582;2023-03-21T03:42:55;99816.88;;;2.80;100.00
59767;BME280;46248;58.364;25.582;2023-03-21T03:46:26;99810.03;;;2.79;100.00
59767;BME280;46248;58.364;25.582;2023-03-21T03:49:52;99801.56;;;2.74;100.00
59767;BME280;46248;58.364;25.582;2023-03-21T03:53:19;99808.41;;;2.75;100.00
59767;BME280;46248;58.364;25.582;2023-03-21T03:56:43;99817.81;;;2.78;100.00
59767;BME280;46248;58.364;25.582;2023-03-21T04:00:09;99814.47;;;2.75;100.00
59767;BME280;46248;58.364;25.582;2023-03-21T04:03:34;99818.81;;;2.73;100.00
59767;BME280;46248;58.364;25.582;2023-03-21T04:07:09;99808.66;;;2.67;100.00
59767;BME280;46248;58.364;25.582;2023-03-21T04:10:31;99814.59;;;2.71;100.00
59767;BME280;46248;58.364;25.582;2023-03-21T04:13:52;99817.25;;;2.68;100.00
59767;BME280;46248;58.364;25.582;2023-03-21T04:17:15;99811.25;;;2.67;100.00
59767;BME280;46248;58.364;25.582;2023-03-21T04:20:39;99830.94;;;2.71;100.00
59767;BME280;46248;58.364;25.582;2023-03-21T04:24:05;99815.75;;;2.61;100.00
59767;BME280;46248;58.364;25.582;2023-03-21T04:27:27;99831.78;;;2.72;100.00
59767;BME280;46248;58.364;25.582;2023-03-21T04:30:49;99823.25;;;2.70;100.00
59767;BME280;46248;58.364;25.582;2023-03-21T04:34:25;99819.72;;;2.72;100.00
59767;BME280;46248;58.364;25.582;2023-03-21T04:37:50;99821.41;;;2.73;100.00
59767;BME280;46248;58.364;25.582;2023-03-21T04:41:12;99819.72;;;2.72;100.00
59767;BME280;46248;58.364;25.582;2023-03-21T04:44:34;99820.59;;;2.71;100.00
59767;BME280;46248;58.364;25.582;2023-03-21T04:47:56;99831.84;;;2.70;100.00
59767;BME280;46248;58.364;25.582;2023-03-21T04:51:18;99785.41;;;2.38;100.00
59767;BME280;46248;58.364;25.582;2023-03-21T04:54:42;99850.06;;;2.66;100.00
59767;BME280;46248;58.364;25.582;2023-03-21T04:58:04;99841.53;;;2.62;100.00
59767;BME280;46248;58.364;25.582;2023-03-21T05:01:27;99850.94;;;2.65;100.00
59767;BME280;46248;58.364;25.582;2023-03-21T05:04:50;99856.09;;;2.66;100.00
59767;BME280;46248;58.364;25.582;2023-03-21T05:08:12;99856.22;;;2.62;100.00
59767;BME280;46248;58.364;25.582;2023-03-21T05:11:38;99873.38;;;2.64;100.00
59767;BME280;46248;58.364;25.582;2023-03-21T05:15:00;99884.63;;;2.63;100.00
59767;BME280;46248;58.364;25.582;2023-03-21T05:18:22;99891.50;;;2.63;100.00
59767;BME280;46248;58.364;25.582;2023-03-21T05:21:46;99883.81;;;2.61;100.00
59767;BME280;46248;58.364;25.582;2023-03-21T05:25:09;99896.75;;;2.60;100.00
59767;BME280;46248;58.364;25.582;2023-03-21T05:28:32;99901.06;;;2.61;100.00
59767;BME280;46248;58.364;25.582;2023-03-21T05:31:56;99901.00;;;2.62;100.00
59767;BME280;46248;58.364;25.582;2023-03-21T05:35:18;99880.84;;;2.44;100.00
59767;BME280;46248;58.364;25.582;2023-03-21T05:38:40;99918.28;;;2.60;100.00
59767;BME280;46248;58.364;25.582;2023-03-21T05:42:05;99926.97;;;2.58;100.00
59767;BME280;46248;58.364;25.582;2023-03-21T05:45:29;99927.00;;;2.56;100.00
59767;BME280;46248;58.364;25.582;2023-03-21T05:48:51;99936.53;;;2.54;100.00
59767;BME280;46248;58.364;25.582;2023-03-21T05:52:13;99946.13;;;2.50;100.00
59767;BME280;46248;58.364;25.582;2023-03-21T05:55:35;99948.78;;;2.47;100.00
59767;BME280;46248;58.364;25.582;2023-03-21T05:58:57;99956.75;;;2.40;100.00
59767;BME280;46248;58.364;25.582;2023-03-21T06:02:21;99954.41;;;2.31;100.00
59767;BME280;46248;58.364;25.582;2023-03-21T06:05:43;99956.25;;;2.25;100.00
59767;BME280;46248;58.364;25.582;2023-03-21T06:09:04;99959.00;;;2.19;100.00
59767;BME280;46248;58.364;25.582;2023-03-21T06:12:27;99951.56;;;2.07;100.00
59767;BME280;46248;58.364;25.582;2023-03-21T06:15:49;99968.53;;;2.17;100.00
59767;BME280;46248;58.364;25.582;2023-03-21T06:19:12;99968.75;;;2.08;100.00
59767;BME280;46248;58.364;25.582;2023-03-21T06:22:35;99990.19;;;2.12;100.00
59767;BME280;46248;58.364;25.582;2023-03-21T06:25:56;99986.91;;;2.05;100.00
59767;BME280;46248;58.364;25.582;2023-03-21T06:29:18;99994.03;;;1.97;100.00
59767;BME280;46248;58.364;25.582;2023-03-21T06:32:40;99987.44;;;1.83;100.00
59767;BME280;46248;58.364;25.582;2023-03-21T06:36:04;100010.38;;;1.96;100.00
59767;BME280;46248;58.364;25.582;2023-03-21T06:39:26;100006.94;;;1.95;100.00
59767;BME280;46248;58.364;25.582;2023-03-21T06:42:48;99981.59;;;1.75;100.00
59767;BME280;46248;58.364;25.582;2023-03-21T06:46:10;100014.81;;;1.91;100.00
59767;BME280;46248;58.364;25.582;2023-03-21T06:49:31;100007.00;;;1.94;100.00
59767;BME280;46248;58.364;25.582;2023-03-21T06:52:55;100022.38;;;1.98;100.00
59767;BME280;46248;58.364;25.582;2023-03-21T06:56:18;100026.72;;;1.96;100.00
59767;BME280;46248;58.364;25.582;2023-03-21T06:59:40;100016.59;;;1.89;100.00
59767;BME280;46248;58.364;25.582;2023-03-21T07:03:02;100022.50;;;1.94;100.00
59767;BME280;46248;58.364;25.582;2023-03-21T07:06:24;100039.53;;;1.99;100.00
59767;BME280;46248;58.364;25.582;2023-03-21T07:09:48;100042.09;;;2.01;100.00
59767;BME280;46248;58.364;25.582;2023-03-21T07:13:11;100049.84;;;2.01;100.00
59767;BME280;46248;58.364;25.582;2023-03-21T07:16:33;100061.16;;;1.97;100.00
59767;BME280;46248;58.364;25.582;2023-03-21T07:19:55;100056.25;;;1.84;100.00
59767;BME280;46248;58.364;25.582;2023-03-21T07:23:18;100067.31;;;1.90;100.00
59767;BME280;46248;58.364;25.582;2023-03-21T07:26:42;100081.00;;;1.93;100.00
59767;BME280;46248;58.364;25.582;2023-03-21T07:30:05;100085.38;;;1.91;99.89
59767;BME280;46248;58.364;25.582;2023-03-21T07:33:27;100091.41;;;1.90;100.00
59767;BME280;46248;58.364;25.582;2023-03-21T07:36:49;100081.19;;;1.86;99.67
59767;BME280;46248;58.364;25.582;2023-03-21T07:40:11;100086.16;;;1.95;100.00
59767;BME280;46248;58.364;25.582;2023-03-21T07:43:34;100105.78;;;2.02;99.62
59767;BME280;46248;58.364;25.582;2023-03-21T07:46:59;100097.22;;;2.00;99.33
59767;BME280;46248;58.364;25.582;2023-03-21T07:50:20;100107.41;;;2.06;98.96
59767;BME280;46248;58.364;25.582;2023-03-21T07:53:42;100118.47;;;2.11;98.88
59767;BME280;46248;58.364;25.582;2023-03-21T07:57:08;100107.41;;;2.06;98.86
59767;BME280;46248;58.364;25.582;2023-03-21T08:00:34;100115.09;;;2.09;98.27
59767;BME280;46248;58.364;25.582;2023-03-21T08:03:56;100124.41;;;2.15;97.58
59767;BME280;46248;58.364;25.582;2023-03-21T08:07:18;100120.13;;;2.14;97.17
59767;BME280;46248;58.364;25.582;2023-03-21T08:10:41;100138.00;;;2.24;97.34
59767;BME280;46248;58.364;25.582;2023-03-21T08:14:03;100136.13;;;2.29;98.18
59767;BME280;46248;58.364;25.582;2023-03-21T08:17:27;100141.28;;;2.29;97.29
59767;BME280;46248;58.364;25.582;2023-03-21T08:20:51;100131.03;;;2.26;97.21
59767;BME280;46248;58.364;25.582;2023-03-21T08:24:13;100141.28;;;2.31;97.41
59767;BME280;46248;58.364;25.582;2023-03-21T08:27:34;100126.53;;;2.35;96.55
59767;BME280;46248;58.364;25.582;2023-03-21T08:30:56;100146.97;;;2.45;96.68
59767;BME280;46248;58.364;25.582;2023-03-21T08:34:20;100146.84;;;2.50;96.09
59767;BME280;46248;58.364;25.582;2023-03-21T08:37:42;100156.25;;;2.52;96.02
59767;BME280;46248;58.364;25.582;2023-03-21T08:41:05;100150.28;;;2.50;95.61
59767;BME280;46248;58.364;25.582;2023-03-21T08:44:27;100148.47;;;2.54;95.85
59767;BME280;46248;58.364;25.582;2023-03-21T08:47:49;100149.44;;;2.50;95.90
59767;BME280;46248;58.364;25.582;2023-03-21T08:51:12;100167.34;;;2.58;96.63
59767;BME280;46248;58.364;25.582;2023-03-21T08:54:34;100164.75;;;2.58;96.27
59767;BME280;46248;58.364;25.582;2023-03-21T08:57:56;100170.88;;;2.53;95.66
59767;BME280;46248;58.364;25.582;2023-03-21T09:01:18;100186.31;;;2.57;96.44
59767;BME280;46248;58.364;25.582;2023-03-21T09:04:40;100195.88;;;2.53;95.08
59767;BME280;46248;58.364;25.582;2023-03-21T09:08:04;100207.31;;;2.43;93.93
59767;BME280;46248;58.364;25.582;2023-03-21T09:11:26;100219.41;;;2.42;93.51
59767;BME280;46248;58.364;25.582;2023-03-21T09:14:48;100221.97;;;2.42;92.83
59767;BME280;46248;58.364;25.582;2023-03-21T09:18:10;100223.47;;;2.51;93.06
59767;BME280;46248;58.364;25.582;2023-03-21T09:21:35;100231.91;;;2.59;92.74
59767;BME280;46248;58.364;25.582;2023-03-21T09:24:59;100222.47;;;2.58;91.64
59767;BME280;46248;58.364;25.582;2023-03-21T09:28:27;100242.88;;;2.70;93.16
59767;BME280;46248;58.364;25.582;2023-03-21T09:31:50;100227.34;;;2.70;93.26
59767;BME280;46248;58.364;25.582;2023-03-21T09:35:13;100249.19;;;2.94;92.78
59767;BME280;46248;58.364;25.582;2023-03-21T09:38:38;100238.63;;;3.04;91.63
59767;BME280;46248;58.364;25.582;2023-03-21T09:42:15;100250.72;;;3.02;89.49
59767;BME280;46248;58.364;25.582;2023-03-21T09:45:45;100250.66;;;3.05;90.61
59767;BME280;46248;58.364;25.582;2023-03-21T09:49:16;100265.25;;;3.07;89.46
59767;BME280;46248;58.364;25.582;2023-03-21T09:52:43;100278.34;;;3.01;87.74
59767;BME280;46248;58.364;25.582;2023-03-21T09:56:09;100270.50;;;3.04;87.81
59767;BME280;46248;58.364;25.582;2023-03-21T09:59:36;100262.88;;;3.00;87.77
59767;BME280;46248;58.364;25.582;2023-03-21T10:03:02;100279.88;;;3.08;88.36
59767;BME280;46248;58.364;25.582;2023-03-21T10:06:27;100291.94;;;3.09;87.13
59767;BME280;46248;58.364;25.582;2023-03-21T10:09:50;100303.97;;;3.10;88.42
59767;BME280;46248;58.364;25.582;2023-03-21T10:13:15;100300.34;;;3.17;87.37
59767;BME280;46248;58.364;25.582;2023-03-21T10:16:42;100307.09;;;3.25;86.83
59767;BME280;46248;58.364;25.582;2023-03-21T10:20:12;100303.53;;;3.29;86.23
59767;BME280;46248;58.364;25.582;2023-03-21T10:23:34;100310.31;;;3.34;85.60
59767;BME280;46248;58.364;25.582;2023-03-21T10:26:56;100319.72;;;3.37;84.52
59767;BME280;46248;58.364;25.582;2023-03-21T10:30:25;100319.56;;;3.43;84.51
59767;BME280;46248;58.364;25.582;2023-03-21T10:33:50;100327.34;;;3.43;83.35
59767;BME280;46248;58.364;25.582;2023-03-21T10:37:13;100322.34;;;3.35;84.92
59767;BME280;46248;58.364;25.582;2023-03-21T10:40:37;100330.94;;;3.36;85.86
59767;BME280;46248;58.364;25.582;2023-03-21T10:44:07;100321.47;;;3.36;85.78
59767;BME280;46248;58.364;25.582;2023-03-21T10:47:32;100331.81;;;3.36;86.48
59767;BME280;46248;58.364;25.582;2023-03-21T10:50:56;100324.00;;;3.39;84.78
59767;BME280;46248;58.364;25.582;2023-03-21T10:54:19;100336.03;;;3.40;82.76
59767;BME280;46248;58.364;25.582;2023-03-21T10:57:42;100330.75;;;3.45;83.14
59767;BME280;46248;58.364;25.582;2023-03-21T11:01:09;100324.44;;;3.55;83.67
59767;BME280;46248;58.364;25.582;2023-03-21T11:04:35;100328.56;;;3.62;83.35
59767;BME280;46248;58.364;25.582;2023-03-21T11:08:02;100334.66;;;3.60;82.79
59767;BME280;46248;58.364;25.582;2023-03-21T11:11:25;100332.22;;;3.55;82.86
59767;BME280;46248;58.364;25.582;2023-03-21T11:14:48;100332.63;;;3.38;80.01
59767;BME280;46248;58.364;25.582;2023-03-21T11:18:17;100339.50;;;3.39;80.93
59767;BME280;46248;58.364;25.582;2023-03-21T11:21:39;100343.78;;;3.42;80.29
59767;BME280;46248;58.364;25.582;2023-03-21T11:25:06;100344.53;;;3.46;79.67
59767;BME280;46248;58.364;25.582;2023-03-21T11:28:33;100352.91;;;3.55;77.97
59767;BME280;46248;58.364;25.582;2023-03-21T11:31:59;100342.41;;;3.61;77.36
59767;BME280;46248;58.364;25.582;2023-03-21T11:35:23;100341.28;;;3.72;79.05
59767;BME280;46248;58.364;25.582;2023-03-21T11:38:48;100344.53;;;3.80;79.42
59767;BME280;46248;58.364;25.582;2023-03-21T11:42:26;100319.06;;;3.63;78.89
59767;BME280;46248;58.364;25.582;2023-03-21T11:45:55;100339.66;;;3.67;78.13
59767;BME280;46248;58.364;25.582;2023-03-21T11:49:18;100331.91;;;3.66;80.25
59767;BME280;46248;58.364;25.582;2023-03-21T11:52:42;100334.44;;;3.69;78.18
59767;BME280;46248;58.364;25.582;2023-03-21T11:56:21;100342.91;;;3.76;77.75
59767;BME280;46248;58.364;25.582;2023-03-21T11:59:51;100335.84;;;3.81;78.12
59767;BME280;46248;58.364;25.582;2023-03-21T12:03:46;100340.91;;;3.85;74.87
59767;BME280;46248;58.364;25.582;2023-03-21T12:07:19;100338.25;;;3.88;73.88
59767;BME280;46248;58.364;25.582;2023-03-21T12:10:50;100352.34;;;3.78;72.88
59767;BME280;46248;58.364;25.582;2023-03-21T12:14:19;100358.38;;;3.79;74.87
59767;BME280;46248;58.364;25.582;2023-03-21T12:17:52;100354.63;;;3.89;74.86
59767;BME280;46248;58.364;25.582;2023-03-21T12:21:22;100362.94;;;4.02;73.53
59767;BME280;46248;58.364;25.582;2023-03-21T12:24:50;100355.28;;;3.97;74.20
59767;BME280;46248;58.364;25.582;2023-03-21T12:28:24;100361.25;;;3.99;74.33
59767;BME280;46248;58.364;25.582;2023-03-21T12:32:07;100350.78;;;4.04;75.46
59767;BME280;46248;58.364;25.582;2023-03-21T12:35:41;100359.16;;;4.13;75.74
59767;BME280;46248;58.364;25.582;2023-03-21T12:39:16;100356.56;;;4.13;77.32
59767;BME280;46248;58.364;25.582;2023-03-21T12:42:51;100357.59;;;4.08;73.51
59767;BME280;46248;58.364;25.582;2023-03-21T12:46:23;100369.03;;;3.99;74.08
59767;BME280;46248;58.364;25.582;2023-03-21T12:49:50;100358.06;;;3.91;74.68
59767;BME280;46248;58.364;25.582;2023-03-21T12:53:27;100365.75;;;3.94;73.08
59767;BME280;46248;58.364;25.582;2023-03-21T12:56:53;100369.16;;;3.95;75.47
59767;BME280;46248;58.364;25.582;2023-03-21T13:00:20;100363.06;;;3.97;74.63
59767;BME280;46248;58.364;25.582;2023-03-21T13:03:46;100372.69;;;3.92;72.92
59767;BME280;46248;58.364;25.582;2023-03-21T13:07:14;100363.38;;;3.85;72.54
59767;BME280;46248;58.364;25.582;2023-03-21T13:10:42;100365.16;;;3.83;72.56
59767;BME280;46248;58.364;25.582;2023-03-21T13:14:11;100366.06;;;3.82;72.75
59767;BME280;46248;58.364;25.582;2023-03-21T13:17:40;100350.47;;;3.83;73.74
59767;BME280;46248;58.364;25.582;2023-03-21T13:21:09;100361.50;;;3.90;73.83
59767;BME280;46248;58.364;25.582;2023-03-21T13:24:38;100347.00;;;3.84;72.74
59767;BME280;46248;58.364;25.582;2023-03-21T13:28:04;100317.19;;;3.68;72.00
59767;BME280;46248;58.364;25.582;2023-03-21T13:31:26;100355.47;;;3.91;73.31
59767;BME280;46248;58.364;25.582;2023-03-21T13:35:03;100357.81;;;3.99;74.19
59767;BME280;46248;58.364;25.582;2023-03-21T13:38:35;100354.28;;;4.03;72.07
59767;BME280;46248;58.364;25.582;2023-03-21T13:42:03;100354.19;;;4.06;73.31
59767;BME280;46248;58.364;25.582;2023-03-21T13:45:30;100365.34;;;4.08;71.99
59767;BME280;46248;58.364;25.582;2023-03-21T13:48:58;100358.50;;;4.05;71.40
59767;BME280;46248;58.364;25.582;2023-03-21T13:52:26;100368.94;;;4.04;72.84
59767;BME280;46248;58.364;25.582;2023-03-21T13:56:08;100368.00;;;4.06;73.92
59767;BME280;46248;58.364;25.582;2023-03-21T13:59:39;100361.75;;;4.13;74.16
59767;BME280;46248;58.364;25.582;2023-03-21T14:03:08;100366.09;;;4.13;72.95
59767;BME280;46248;58.364;25.582;2023-03-21T14:06:37;100359.25;;;4.10;72.13
59767;BME280;46248;58.364;25.582;2023-03-21T14:10:04;100365.03;;;4.20;73.51
59767;BME280;46248;58.364;25.582;2023-03-21T14:13:28;100360.66;;;4.22;73.41
59767;BME280;46248;58.364;25.582;2023-03-21T14:16:54;100358.06;;;4.22;72.58
59767;BME280;46248;58.364;25.582;2023-03-21T14:20:21;100354.78;;;4.16;74.07
59767;BME280;46248;58.364;25.582;2023-03-21T14:23:43;100359.22;;;4.12;73.89
59767;BME280;46248;58.364;25.582;2023-03-21T14:27:06;100351.56;;;4.07;72.90
59767;BME280;46248;58.364;25.582;2023-03-21T14:30:32;100368.75;;;4.11;73.34
59767;BME280;46248;58.364;25.582;2023-03-21T14:33:56;100355.03;;;4.06;72.95
59767;BME280;46248;58.364;25.582;2023-03-21T14:37:29;100366.16;;;4.10;72.89
59767;BME280;46248;58.364;25.582;2023-03-21T14:40:53;100360.34;;;4.02;72.51
59767;BME280;46248;58.364;25.582;2023-03-21T14:44:18;100372.34;;;4.06;73.31
59767;BME280;46248;58.364;25.582;2023-03-21T14:47:52;100377.47;;;4.07;73.44
59767;BME280;46248;58.364;25.582;2023-03-21T14:51:14;100380.13;;;4.06;74.06
59767;BME280;46248;58.364;25.582;2023-03-21T14:54:40;100375.00;;;4.03;73.60
59767;BME280;46248;58.364;25.582;2023-03-21T14:58:03;100381.88;;;4.04;74.07
59767;BME280;46248;58.364;25.582;2023-03-21T15:01:28;100377.47;;;4.07;73.69
59767;BME280;46248;58.364;25.582;2023-03-21T15:04:54;100366.16;;;4.10;73.93
59767;BME280;46248;58.364;25.582;2023-03-21T15:08:19;100366.16;;;4.11;73.54
59767;BME280;46248;58.364;25.582;2023-03-21T15:11:48;100357.59;;;4.08;73.41
59767;BME280;46248;58.364;25.582;2023-03-21T15:15:13;100366.19;;;4.08;71.77
59767;BME280;46248;58.364;25.582;2023-03-21T15:18:39;100367.00;;;4.10;73.80
59767;BME280;46248;58.364;25.582;2023-03-21T15:22:09;100361.09;;;4.05;73.30
59767;BME280;46248;58.364;25.582;2023-03-21T15:25:33;100367.09;;;4.07;73.10
59767;BME280;46248;58.364;25.582;2023-03-21T15:28:59;100369.69;;;4.07;72.13
59767;BME280;46248;58.364;25.582;2023-03-21T15:32:24;100367.31;;;4.00;72.68
59767;BME280;46248;58.364;25.582;2023-03-21T15:35:50;100374.28;;;3.96;72.78
59767;BME280;46248;58.364;25.582;2023-03-21T15:39:15;100371.88;;;3.90;73.49
59767;BME280;46248;58.364;25.582;2023-03-21T15:42:40;100366.84;;;3.84;73.67
59767;BME280;46248;58.364;25.582;2023-03-21T15:46:12;100374.75;;;3.79;74.81
59767;BME280;46248;58.364;25.582;2023-03-21T15:49:39;100371.56;;;3.68;75.23
59767;BME280;46248;58.364;25.582;2023-03-21T15:53:04;100381.91;;;3.70;75.39
59767;BME280;46248;58.364;25.582;2023-03-21T15:56:26;100377.84;;;3.59;75.83
59767;BME280;46248;58.364;25.582;2023-03-21T15:59:55;100364.41;;;3.45;76.61
59767;BME280;46248;58.364;25.582;2023-03-21T16:03:23;100384.09;;;3.51;77.15
59767;BME280;46248;58.364;25.582;2023-03-21T16:06:51;100386.88;;;3.43;77.47
59767;BME280;46248;58.364;25.582;2023-03-21T16:10:24;100378.63;;;3.27;77.30
59767;BME280;46248;58.364;25.582;2023-03-21T16:13:48;100380.56;;;3.17;77.45
59767;BME280;46248;58.364;25.582;2023-03-21T16:17:21;100404.81;;;3.13;77.54
59767;BME280;46248;58.364;25.582;2023-03-21T16:20:48;100401.59;;;3.02;78.57
59767;BME280;46248;58.364;25.582;2023-03-21T16:24:10;100400.09;;;2.92;78.54
59767;BME280;46248;58.364;25.582;2023-03-21T16:27:33;100384.88;;;2.78;78.88
59767;BME280;46248;58.364;25.582;2023-03-21T16:30:56;100403.91;;;2.75;79.75
59767;BME280;46248;58.364;25.582;2023-03-21T16:34:18;100404.06;;;2.69;79.29
59767;BME280;46248;58.364;25.582;2023-03-21T16:37:42;100421.38;;;2.64;80.52
59767;BME280;46248;58.364;25.582;2023-03-21T16:41:08;100417.25;;;2.56;80.79
59767;BME280;46248;58.364;25.582;2023-03-21T16:44:29;100414.78;;;2.48;81.14
59767;BME280;46248;58.364;25.582;2023-03-21T16:47:53;100415.97;;;2.33;81.20
59767;BME280;46248;58.364;25.582;2023-03-21T16:51:17;100422.00;;;2.32;81.75
59767;BME280;46248;58.364;25.582;2023-03-21T16:54:41;100419.59;;;2.23;82.01
59767;BME280;46248;58.364;25.582;2023-03-21T16:58:04;100423.16;;;2.16;82.35
59767;BME280;46248;58.364;25.582;2023-03-21T17:01:25;100390.06;;;1.90;82.57
59767;BME280;46248;58.364;25.582;2023-03-21T17:04:49;100409.78;;;1.94;83.12
59767;BME280;46248;58.364;25.582;2023-03-21T17:08:14;100418.34;;;1.96;83.58
59767;BME280;46248;58.364;25.582;2023-03-21T17:11:37;100413.34;;;1.87;83.85
59767;BME280;46248;58.364;25.582;2023-03-21T17:15:01;100403.22;;;1.74;84.08
59767;BME280;46248;58.364;25.582;2023-03-21T17:18:23;100417.88;;;1.72;84.23
59767;BME280;46248;58.364;25.582;2023-03-21T17:21:45;100424.88;;;1.66;85.17
59767;BME280;46248;58.364;25.582;2023-03-21T17:25:07;100422.38;;;1.61;84.90
59767;BME280;46248;58.364;25.582;2023-03-21T17:28:30;100424.19;;;1.56;85.30
59767;BME280;46248;58.364;25.582;2023-03-21T17:31:52;100426.84;;;1.50;86.07
59767;BME280;46248;58.364;25.582;2023-03-21T17:35:14;100413.25;;;1.40;86.47
59767;BME280;46248;58.364;25.582;2023-03-21T17:38:36;100432.16;;;1.41;86.74
59767;BME280;46248;58.364;25.582;2023-03-21T17:41:58;100415.97;;;1.31;87.17
59767;BME280;46248;58.364;25.582;2023-03-21T17:45:22;100416.16;;;1.19;88.00
59767;BME280;46248;58.364;25.582;2023-03-21T17:48:44;100430.69;;;1.24;88.55
59767;BME280;46248;58.364;25.582;2023-03-21T17:52:06;100436.75;;;1.20;88.57
59767;BME280;46248;58.364;25.582;2023-03-21T17:55:28;100432.56;;;1.11;89.03
59767;BME280;46248;58.364;25.582;2023-03-21T17:58:50;100438.56;;;1.12;89.31